createdAt,value
2022-07-25T00:02:01.227Z,2.10
2022-07-25T00:07:24.812Z,2.90
2022-07-25T00:12:47.696Z,2.08
2022-07-25T00:18:10.001Z,1.85
2022-07-25T00:23:32.496Z,2.25
2022-07-25T00:28:54.926Z,1.80
2022-07-25T00:34:17.425Z,2.05
2022-07-25T00:39:39.956Z,2.40
2022-07-25T00:45:02.510Z,1.90
2022-07-25T00:50:27.028Z,2.22
2022-07-25T00:55:49.496Z,2.08
2022-07-25T01:01:12.168Z,1.98
2022-07-25T01:06:35.064Z,1.88
2022-07-25T01:11:57.606Z,2.15
2022-07-25T01:17:20.096Z,2.10
2022-07-25T01:22:42.422Z,2.00
2022-07-25T01:28:04.977Z,2.00
2022-07-25T01:33:27.093Z,2.03
2022-07-25T01:38:49.595Z,1.90
2022-07-25T01:44:17.364Z,2.03
2022-07-25T01:49:40.315Z,2.20
2022-07-25T01:55:02.664Z,2.25
2022-07-25T02:00:25.091Z,2.08
2022-07-25T02:05:47.815Z,2.10
2022-07-25T02:11:10.324Z,1.63
2022-07-25T02:16:32.682Z,2.20
2022-07-25T02:21:55.529Z,2.20
2022-07-25T02:27:17.824Z,2.20
2022-07-25T02:32:40.542Z,2.10
2022-07-25T02:38:03.048Z,2.13
2022-07-25T02:43:25.703Z,1.90
2022-07-25T02:48:48.234Z,2.38
2022-07-25T02:54:10.469Z,2.60
2022-07-25T02:59:33.047Z,2.35
2022-07-25T03:04:55.735Z,2.55
2022-07-25T03:10:18.183Z,2.00
2022-07-25T03:15:40.485Z,2.47
2022-07-25T03:21:03.085Z,2.50
2022-07-25T03:26:25.579Z,2.35
2022-07-25T03:31:48.093Z,2.80
2022-07-25T03:37:10.574Z,2.70
2022-07-25T03:42:35.656Z,2.38
2022-07-25T03:47:58.363Z,2.45
2022-07-25T03:53:20.870Z,2.45
2022-07-25T03:58:43.077Z,2.70
2022-07-25T04:04:05.846Z,2.20
2022-07-25T04:09:28.199Z,2.75
2022-07-25T04:14:55.734Z,2.50
2022-07-25T04:20:17.886Z,2.60
2022-07-25T04:25:40.332Z,2.30
2022-07-25T04:31:02.697Z,2.60
2022-07-25T04:36:25.120Z,2.50
2022-07-25T04:41:47.740Z,2.50
2022-07-25T04:47:09.934Z,2.60
2022-07-25T04:52:32.528Z,2.80
2022-07-25T04:57:55.232Z,2.97
2022-07-25T05:03:17.745Z,3.22
2022-07-25T05:08:40.379Z,2.97
2022-07-25T05:14:03.023Z,2.53
2022-07-25T05:19:26.220Z,2.55
2022-07-25T05:24:48.814Z,2.75
2022-07-25T05:30:12.959Z,2.60
2022-07-25T05:35:35.087Z,2.63
2022-07-25T05:40:57.717Z,2.90
2022-07-25T05:46:20.165Z,2.80
2022-07-25T05:51:45.578Z,2.70
2022-07-25T05:57:08.023Z,2.95
2022-07-25T06:02:30.737Z,2.97
2022-07-25T06:07:53.066Z,2.88
2022-07-25T06:13:15.563Z,2.85
2022-07-25T06:18:38.010Z,2.80
2022-07-25T06:24:00.550Z,3.30
2022-07-25T06:29:22.883Z,3.03
2022-07-25T06:34:45.631Z,3.13
2022-07-25T06:40:09.208Z,3.03
2022-07-25T06:45:31.456Z,3.10
2022-07-25T06:50:54.502Z,3.13
2022-07-25T06:56:17.850Z,3.35
2022-07-25T07:01:40.487Z,3.42
2022-07-25T07:07:02.970Z,6.47
2022-07-25T07:12:25.135Z,4.05
2022-07-25T07:17:47.978Z,3.53
2022-07-25T07:23:10.597Z,3.95
2022-07-25T07:28:32.992Z,3.63
2022-07-25T07:33:55.997Z,4.63
2022-07-25T07:39:18.262Z,5.32
2022-07-25T07:44:40.762Z,4.05
2022-07-25T07:50:03.514Z,4.70
2022-07-25T07:55:45.361Z,4.35
2022-07-25T08:01:07.773Z,4.30
2022-07-25T08:06:30.243Z,4.28
2022-07-25T08:11:53.150Z,4.25
2022-07-25T08:17:15.545Z,4.53
2022-07-25T08:22:41.237Z,4.32
2022-07-25T08:28:06.446Z,4.32
2022-07-25T08:33:28.969Z,4.35
2022-07-25T08:38:58.173Z,4.15
2022-07-25T08:44:21.638Z,4.25
2022-07-25T08:49:44.009Z,4.20
2022-07-25T08:55:09.597Z,4.45
2022-07-25T09:00:32.394Z,4.43
2022-07-25T09:05:55.512Z,5.25
2022-07-25T09:11:37.356Z,4.75
2022-07-25T09:17:06.996Z,4.72
2022-07-25T09:22:45.382Z,5.05
2022-07-25T09:28:25.458Z,5.88
2022-07-25T09:33:59.508Z,5.68
2022-07-25T09:39:21.841Z,5.38
2022-07-25T09:44:45.173Z,5.90
2022-07-25T09:50:08.225Z,5.68
2022-07-25T09:55:31.593Z,5.30
2022-07-25T10:00:58.269Z,6.45
2022-07-25T10:06:29.628Z,6.32
2022-07-25T10:12:05.822Z,5.88
2022-07-25T10:17:28.415Z,6.32
2022-07-25T10:22:58.560Z,6.70
2022-07-25T10:28:20.974Z,6.38
2022-07-25T10:33:43.708Z,5.90
2022-07-25T10:39:09.787Z,6.38
2022-07-25T10:44:47.394Z,6.90
2022-07-25T10:50:25.603Z,7.15
2022-07-25T10:56:06.281Z,6.85
2022-07-25T11:01:34.048Z,6.63
2022-07-25T11:06:57.008Z,7.20
2022-07-25T11:12:19.660Z,6.72
2022-07-25T11:17:50.794Z,6.80
2022-07-25T11:23:21.817Z,7.05
2022-07-25T11:28:47.343Z,7.03
2022-07-25T11:34:09.606Z,6.95
2022-07-25T11:39:37.473Z,7.20
2022-07-25T11:45:00.856Z,7.28
2022-07-25T11:50:30.474Z,6.95
2022-07-25T11:55:52.998Z,6.80
2022-07-25T12:01:15.810Z,7.05
2022-07-25T12:06:38.260Z,7.30
2022-07-25T12:12:04.590Z,7.15
2022-07-25T12:17:26.984Z,7.10
2022-07-25T12:22:52.033Z,7.10
2022-07-25T12:28:14.682Z,7.65
2022-07-25T12:33:37.797Z,7.45
2022-07-25T12:39:00.425Z,7.20
2022-07-25T12:44:22.652Z,7.32
2022-07-25T12:49:45.137Z,7.40
2022-07-25T12:55:10.072Z,6.93
2022-07-25T13:00:32.659Z,7.00
2022-07-25T13:05:55.336Z,6.78
2022-07-25T13:11:18.009Z,7.18
2022-07-25T13:16:40.839Z,7.30
2022-07-25T13:22:03.699Z,6.80
2022-07-25T13:27:26.047Z,6.60
2022-07-25T13:32:48.459Z,6.90
2022-07-25T13:38:13.635Z,6.85
2022-07-25T13:43:35.836Z,6.40
2022-07-25T13:48:58.283Z,6.72
2022-07-25T13:54:21.398Z,6.53
2022-07-25T13:59:43.568Z,6.30
2022-07-25T14:05:06.244Z,6.90
2022-07-25T14:10:28.523Z,6.47
2022-07-25T14:15:50.852Z,6.00
2022-07-25T14:21:13.342Z,6.28
2022-07-25T14:26:35.574Z,6.32
2022-07-25T14:31:58.311Z,6.75
2022-07-25T14:37:22.365Z,6.38
2022-07-25T14:42:45.273Z,6.20
2022-07-25T14:48:07.592Z,5.90
2022-07-25T14:53:29.904Z,6.00
2022-07-25T14:58:52.448Z,6.15
2022-07-25T15:04:14.929Z,6.18
2022-07-25T15:09:37.832Z,6.28
2022-07-25T15:15:00.067Z,6.40
2022-07-25T15:20:22.728Z,6.30
2022-07-25T15:26:04.606Z,6.60
2022-07-25T15:31:28.085Z,6.53
2022-07-25T15:36:50.475Z,6.15
2022-07-25T15:42:12.714Z,6.53
2022-07-25T15:47:34.919Z,6.47
2022-07-25T15:52:57.582Z,6.03
2022-07-25T15:58:20.105Z,6.50
2022-07-25T16:03:42.889Z,6.57
2022-07-25T16:09:05.784Z,6.90
2022-07-25T16:14:28.570Z,7.35
2022-07-25T16:19:50.848Z,7.60
2022-07-25T16:25:13.512Z,8.25
2022-07-25T16:30:35.995Z,9.00
2022-07-25T16:35:58.429Z,9.50
2022-07-25T16:41:21.001Z,9.88
2022-07-25T16:46:43.603Z,10.68
2022-07-25T16:52:06.701Z,10.77
2022-07-25T16:57:28.987Z,12.38
2022-07-25T17:02:51.941Z,13.10
2022-07-25T17:08:14.625Z,12.13
2022-07-25T17:13:37.048Z,13.77
2022-07-25T17:18:59.423Z,12.85
2022-07-25T17:24:21.596Z,17.27
2022-07-25T17:29:43.995Z,15.00
2022-07-25T17:35:06.704Z,8.02
2022-07-25T17:40:29.033Z,7.13
2022-07-25T17:45:51.313Z,6.53
2022-07-25T17:51:13.910Z,6.80
2022-07-25T17:56:36.742Z,7.50
2022-07-25T18:01:59.274Z,6.38
2022-07-25T18:07:21.791Z,6.40
2022-07-25T18:12:44.900Z,6.97
2022-07-25T18:18:10.474Z,5.93
2022-07-25T18:23:34.846Z,4.70
2022-07-25T18:28:57.225Z,3.83
2022-07-25T18:34:19.777Z,3.85
2022-07-25T18:39:42.466Z,3.97
2022-07-25T18:45:05.284Z,4.18
2022-07-25T18:50:27.905Z,4.30
2022-07-25T18:55:53.180Z,3.95
2022-07-25T19:01:15.742Z,4.05
2022-07-25T19:06:38.076Z,4.53
2022-07-25T19:12:01.326Z,4.45
2022-07-25T19:17:25.595Z,3.88
2022-07-25T19:22:48.291Z,3.67
2022-07-25T19:28:10.906Z,3.40
2022-07-25T19:33:35.815Z,3.95
2022-07-25T19:38:59.151Z,4.22
2022-07-25T19:44:21.892Z,5.18
2022-07-25T19:49:44.274Z,5.32
2022-07-25T19:55:06.974Z,5.72
2022-07-25T20:00:29.438Z,5.78
2022-07-25T20:05:52.196Z,6.60
2022-07-25T20:11:15.722Z,6.95
2022-07-25T20:16:39.500Z,6.95
2022-07-25T20:22:02.005Z,6.75
2022-07-25T20:27:24.729Z,6.65
2022-07-25T20:32:47.777Z,5.75
2022-07-25T20:38:10.427Z,5.82
2022-07-25T20:43:33.422Z,6.40
2022-07-25T20:48:55.721Z,6.53
2022-07-25T20:54:18.190Z,6.22
2022-07-25T20:59:40.769Z,6.15
2022-07-25T21:05:03.930Z,5.70
2022-07-25T21:10:26.672Z,5.93
2022-07-25T21:15:49.283Z,5.53
2022-07-25T21:21:13.697Z,5.95
2022-07-25T21:26:37.305Z,6.40
2022-07-25T21:31:59.733Z,5.72
2022-07-25T21:37:22.136Z,6.28
2022-07-25T21:42:44.623Z,6.25
2022-07-25T21:48:06.951Z,6.38
2022-07-25T21:53:29.579Z,6.35
2022-07-25T21:58:51.864Z,6.70
2022-07-25T22:04:14.237Z,6.60
2022-07-25T22:09:36.894Z,6.70
2022-07-25T22:14:59.555Z,7.32
2022-07-25T22:20:22.238Z,6.82
2022-07-25T22:25:44.529Z,6.70
2022-07-25T22:31:07.264Z,6.97
2022-07-25T22:36:29.983Z,7.28
2022-07-25T22:41:52.436Z,7.20
2022-07-25T22:47:14.804Z,6.28
2022-07-25T22:52:37.433Z,6.70
2022-07-25T22:58:00.233Z,6.22
2022-07-25T23:03:22.938Z,6.90
2022-07-25T23:08:45.998Z,6.90
2022-07-25T23:14:08.418Z,7.03
2022-07-25T23:19:30.977Z,7.57
2022-07-25T23:24:54.079Z,7.38
2022-07-25T23:30:17.115Z,7.28
2022-07-25T23:47:39.578Z,8.10
2022-07-25T23:53:02.965Z,9.23
2022-07-25T23:58:25.575Z,8.95
